Time;durP1;ratioP1;P1;durP2;ratioP2;P2;SDS_P1;SDS_P2;PMS_P1;PMS_P2;Temp;Humidity;BMP_temperature;BMP_pressure;BME280_temperature;BME280_humidity;BME280_pressure;Samples;Min_cycle;Max_cycle;Signal;HPM_P1;HPM_P2
2023/01/05 00:01:04;;;;;;;24.60;5.00;;;10.50;99.90;;;;;;5018875;28;20440;-64
2023/01/05 00:03:30;;;;;;;23.80;3.87;;;10.50;99.90;;;;;;5044647;28;20044;-64
2023/01/05 00:06:04;;;;;;;24.52;4.65;;;10.50;99.90;;;;;;5036041;28;20322;-66
2023/01/05 00:08:30;;;;;;;24.70;4.40;;;10.50;99.90;;;;;;5030040;28;20099;-66
2023/01/05 00:24:40;;;;;;;22.10;4.63;;;10.40;99.90;;;;;;5027672;28;20045;-63
2023/01/05 00:27:05;;;;;;;37.55;5.88;;;10.50;99.90;;;;;;5048964;28;20039;-63
2023/01/05 00:29:31;;;;;;;24.48;4.20;;;10.50;99.90;;;;;;5041684;28;20480;-64
2023/01/05 00:31:57;;;;;;;29.35;5.90;;;10.50;99.90;;;;;;5030258;28;20044;-67
2023/01/05 00:34:22;;;;;;;26.30;4.78;;;10.50;99.90;;;;;;5026120;28;20069;-63
2023/01/05 00:36:48;;;;;;;26.40;5.35;;;10.40;99.90;;;;;;5035598;28;20046;-63
2023/01/05 00:39:13;;;;;;;26.23;4.65;;;10.40;99.90;;;;;;5045889;28;20041;-65
2023/01/05 00:41:39;;;;;;;30.92;4.65;;;10.40;99.90;;;;;;5038320;28;20061;-66
2023/01/05 00:44:04;;;;;;;34.60;5.03;;;10.40;99.90;;;;;;5046735;28;20489;-63
2023/01/05 00:46:30;;;;;;;28.90;5.50;;;10.40;99.90;;;;;;5025413;28;20127;-63
2023/01/05 00:48:56;;;;;;;28.80;4.72;;;10.40;99.90;;;;;;5030906;28;20037;-64
2023/01/05 00:51:21;;;;;;;30.58;5.18;;;10.40;99.90;;;;;;5045086;28;20087;-65
2023/01/05 00:53:47;;;;;;;24.42;4.25;;;10.40;99.90;;;;;;5046833;28;20079;-63
2023/01/05 00:56:13;;;;;;;30.52;5.20;;;10.40;99.90;;;;;;5047081;28;20737;-64
2023/01/05 00:58:39;;;;;;;33.88;6.00;;;10.40;99.90;;;;;;5030567;28;20048;-63
2023/01/05 01:01:12;;;;;;;31.20;4.80;;;10.30;99.90;;;;;;5019591;28;20038;-63
2023/01/05 01:03:38;;;;;;;29.20;5.32;;;10.30;99.90;;;;;;5045154;28;22138;-63
2023/01/05 01:06:04;;;;;;;28.75;5.28;;;10.30;99.90;;;;;;5041122;28;20168;-63
2023/01/05 01:08:29;;;;;;;33.35;5.57;;;10.40;99.90;;;;;;5017734;28;20053;-63
2023/01/05 01:10:55;;;;;;;35.03;5.68;;;10.50;99.90;;;;;;5046641;28;20508;-63
2023/01/05 01:13:23;;;;;;;33.65;5.35;;;10.30;99.90;;;;;;5046914;28;20040;-64
2023/01/05 01:15:49;;;;;;;33.05;5.35;;;10.30;99.90;;;;;;5028377;28;20120;-65
2023/01/05 01:18:15;;;;;;;29.77;5.57;;;10.30;99.90;;;;;;5041460;28;20113;-64
2023/01/05 01:20:40;;;;;;;36.58;5.32;;;10.30;99.90;;;;;;5041674;28;20044;-64
2023/01/05 01:23:07;;;;;;;22.88;4.72;;;10.30;99.90;;;;;;5047208;28;20064;-66
2023/01/05 01:25:33;;;;;;;28.80;5.70;;;10.40;99.90;;;;;;5039351;28;20051;-64
2023/01/05 01:27:58;;;;;;;30.70;5.18;;;10.30;99.90;;;;;;5053190;28;20036;-63
2023/01/05 01:30:24;;;;;;;23.35;5.50;;;10.20;99.90;;;;;;5052954;28;20048;-62
2023/01/05 01:32:49;;;;;;;28.67;4.93;;;10.20;99.90;;;;;;5026154;28;20041;-63
2023/01/05 01:35:15;;;;;;;29.67;5.75;;;10.20;99.90;;;;;;5045049;28;20490;-63
2023/01/05 01:37:40;;;;;;;34.42;5.13;;;10.20;99.90;;;;;;5047720;28;20083;-66
2023/01/05 01:40:07;;;;;;;28.27;5.15;;;10.20;99.90;;;;;;5052629;28;20033;-62
2023/01/05 01:42:32;;;;;;;27.77;4.63;;;10.20;99.90;;;;;;5042466;28;20388;-63
2023/01/05 01:45:22;;;;;;;33.40;5.05;;;10.20;99.90;;;;;;5049228;28;20041;-62
2023/01/05 01:47:57;;;;;;;33.55;4.85;;;10.20;99.90;;;;;;5047776;28;20037;-62
2023/01/05 01:50:27;;;;;;;28.50;5.43;;;10.10;99.90;;;;;;5044617;28;20045;-62
2023/01/05 01:53:00;;;;;;;25.90;5.00;;;10.20;99.90;;;;;;5052441;28;20088;-65
2023/01/05 01:55:28;;;;;;;25.45;5.25;;;10.20;99.90;;;;;;5025547;28;20045;-62
2023/01/05 01:57:55;;;;;;;25.83;4.75;;;10.20;99.90;;;;;;5008602;28;20041;-63
2023/01/05 02:00:20;;;;;;;28.88;4.95;;;10.30;99.90;;;;;;5021160;28;20150;-62
2023/01/05 02:02:49;;;;;;;28.52;4.65;;;10.20;99.90;;;;;;5043881;28;20475;-63
2023/01/05 02:05:18;;;;;;;30.98;4.97;;;10.20;99.90;;;;;;5021884;28;20117;-63
2023/01/05 02:07:45;;;;;;;25.75;4.22;;;10.10;99.90;;;;;;5031666;28;20029;-62
2023/01/05 02:10:12;;;;;;;29.38;5.18;;;10.20;99.90;;;;;;5021772;28;20041;-62
2023/01/05 02:12:55;;;;;;;23.38;4.57;;;10.20;99.90;;;;;;5041723;28;20067;-63
2023/01/05 02:15:38;;;;;;;23.15;4.45;;;10.20;99.90;;;;;;5043413;28;20048;-63
2023/01/05 02:18:18;;;;;;;32.17;4.75;;;10.10;99.90;;;;;;5049498;28;20124;-66
2023/01/05 02:21:04;;;;;;;28.63;4.18;;;10.10;99.90;;;;;;5049430;28;20044;-63
2023/01/05 02:23:48;;;;;;;29.00;5.43;;;10.10;99.90;;;;;;5046659;28;20037;-63
2023/01/05 02:26:38;;;;;;;24.50;4.10;;;10.10;99.90;;;;;;5054137;28;20400;-66
2023/01/05 02:29:21;;;;;;;21.27;5.03;;;10.20;99.90;;;;;;5032863;28;20484;-62
2023/01/05 02:31:59;;;;;;;25.15;4.75;;;10.20;99.90;;;;;;5029715;28;20103;-63
2023/01/05 02:34:47;;;;;;;26.50;5.07;;;10.10;99.90;;;;;;5048409;28;20033;-63
2023/01/05 02:37:24;;;;;;;24.85;5.20;;;10.10;99.90;;;;;;5041016;28;20415;-63
2023/01/05 02:39:58;;;;;;;30.77;5.40;;;10.10;99.90;;;;;;5044152;28;20048;-62
2023/01/05 02:42:27;;;;;;;25.40;5.47;;;10.10;99.90;;;;;;5045235;28;20044;-63
2023/01/05 02:44:53;;;;;;;23.55;4.68;;;10.10;99.90;;;;;;5050495;28;20044;-66
2023/01/05 02:47:26;;;;;;;26.35;4.95;;;10.10;99.90;;;;;;5028685;28;20369;-63
2023/01/05 02:50:07;;;;;;;32.20;4.95;;;10.10;99.90;;;;;;5047180;28;20401;-63
2023/01/05 02:52:44;;;;;;;25.13;4.15;;;10.10;99.90;;;;;;5044872;28;20161;-62
2023/01/05 02:55:15;;;;;;;28.90;4.55;;;10.10;99.90;;;;;;5032665;28;20034;-62
2023/01/05 02:57:52;;;;;;;23.13;4.25;;;10.10;99.90;;;;;;5042516;28;20242;-62
2023/01/05 03:00:23;;;;;;;20.98;4.47;;;10.10;99.90;;;;;;5031887;28;20045;-62
2023/01/05 03:02:59;;;;;;;22.42;4.15;;;10.10;99.90;;;;;;5043111;28;20037;-66
2023/01/05 03:05:33;;;;;;;25.38;4.38;;;10.10;99.90;;;;;;5032892;28;20118;-62
2023/01/05 03:08:06;;;;;;;25.00;4.97;;;10.10;99.90;;;;;;5032171;28;20395;-62
2023/01/05 03:13:41;;;;;;;27.45;5.20;;;10.10;99.90;;;;;;5038507;28;20073;-65
2023/01/05 03:16:11;;;;;;;29.92;4.00;;;10.10;99.90;;;;;;5040629;28;20029;-62
2023/01/05 03:19:34;;;;;;;28.35;4.28;;;10.10;99.90;;;;;;5045377;28;20515;-63
2023/01/05 03:21:26;;;;;;;25.92;5.10;;;10.10;99.90;;;;;;5043016;28;20053;-63
2023/01/05 03:35:33;;;;;;;25.13;4.95;;;10.10;99.90;;;;;;5041891;28;20427;-62
2023/01/05 03:38:27;;;;;;;32.08;4.82;;;10.10;99.90;;;;;;5028699;28;20090;-62
2023/01/05 03:40:56;;;;;;;26.52;4.22;;;10.00;99.90;;;;;;5043600;28;20041;-62
2023/01/05 03:43:23;;;;;;;29.70;5.38;;;10.00;99.90;;;;;;5032900;28;20037;-65
2023/01/05 03:45:55;;;;;;;27.90;4.85;;;10.00;99.90;;;;;;5021397;28;20037;-62
2023/01/05 03:48:22;;;;;;;28.13;5.72;;;10.00;99.90;;;;;;5049722;28;20036;-63
2023/01/05 03:50:48;;;;;;;26.20;4.55;;;10.00;99.90;;;;;;5047827;28;20500;-62
2023/01/05 03:53:14;;;;;;;31.17;4.20;;;10.00;99.90;;;;;;5046492;28;20033;-62
2023/01/05 03:55:40;;;;;;;23.67;4.47;;;10.00;99.90;;;;;;5042190;28;20039;-63
2023/01/05 03:58:06;;;;;;;29.05;4.68;;;10.00;99.90;;;;;;5033803;28;20121;-62
2023/01/05 04:00:32;;;;;;;28.65;4.15;;;10.00;99.90;;;;;;5045156;28;20484;-62
2023/01/05 04:02:58;;;;;;;29.92;3.80;;;10.00;99.90;;;;;;5044135;28;20527;-62
2023/01/05 04:05:23;;;;;;;24.58;4.40;;;10.00;99.90;;;;;;5030399;28;20110;-62
2023/01/05 04:07:49;;;;;;;23.88;4.00;;;10.10;99.90;;;;;;5049201;28;20107;-63
2023/01/05 04:10:15;;;;;;;27.42;4.43;;;10.00;99.90;;;;;;5044194;28;20041;-66
2023/01/05 04:12:40;;;;;;;27.10;4.53;;;10.00;99.90;;;;;;5043598;28;20567;-62
2023/01/05 04:15:06;;;;;;;22.85;4.28;;;10.00;99.90;;;;;;5032513;28;20071;-63
2023/01/05 04:17:32;;;;;;;23.55;3.95;;;10.00;99.90;;;;;;5048004;28;20039;-62
2023/01/05 04:19:58;;;;;;;23.15;4.30;;;10.00;99.90;;;;;;5025574;28;20041;-63
2023/01/05 04:22:23;;;;;;;24.90;4.47;;;10.00;99.90;;;;;;5032277;28;20039;-63
2023/01/05 04:24:49;;;;;;;27.40;3.65;;;10.00;99.90;;;;;;5025820;28;20091;-65
2023/01/05 04:27:15;;;;;;;19.95;3.40;;;10.00;99.90;;;;;;5049329;28;20080;-62
2023/01/05 04:29:40;;;;;;;25.77;3.75;;;10.00;99.90;;;;;;5043678;28;20429;-62
2023/01/05 04:32:06;;;;;;;22.80;4.65;;;10.10;99.90;;;;;;5043518;28;20045;-63
2023/01/05 04:34:32;;;;;;;31.08;4.20;;;10.20;99.90;;;;;;5020330;28;20053;-65
2023/01/05 04:36:57;;;;;;;26.08;4.57;;;10.00;99.90;;;;;;5048035;28;20060;-63
2023/01/05 04:39:23;;;;;;;27.77;4.63;;;10.00;99.90;;;;;;5043166;28;20025;-62
2023/01/05 04:41:49;;;;;;;24.77;4.15;;;10.00;99.90;;;;;;5030951;28;20479;-63
2023/01/05 04:44:15;;;;;;;25.92;5.32;;;10.00;99.90;;;;;;5018333;28;20047;-62
2023/01/05 04:46:40;;;;;;;22.65;4.45;;;10.00;99.90;;;;;;5018837;28;20029;-63
2023/01/05 04:49:07;;;;;;;23.20;4.70;;;10.00;99.90;;;;;;5028356;28;20090;-65
2023/01/05 04:51:33;;;;;;;30.75;5.40;;;10.00;99.90;;;;;;5053327;28;20060;-62
2023/01/05 04:53:59;;;;;;;23.25;4.00;;;10.00;99.90;;;;;;5045197;28;20570;-63
2023/01/05 04:56:24;;;;;;;29.67;5.25;;;10.00;99.90;;;;;;5050348;28;20040;-64
2023/01/05 04:58:50;;;;;;;26.90;4.18;;;10.00;99.90;;;;;;5026737;28;20128;-62
2023/01/05 05:01:16;;;;;;;29.30;5.53;;;10.00;99.90;;;;;;5035477;28;20350;-62
2023/01/05 05:03:41;;;;;;;24.25;4.53;;;10.00;99.90;;;;;;5051578;28;20025;-63
2023/01/05 05:06:07;;;;;;;34.33;5.32;;;10.00;99.90;;;;;;5052008;28;20546;-63
2023/01/05 05:08:32;;;;;;;27.42;4.93;;;10.00;99.90;;;;;;5048580;28;20511;-65
2023/01/05 05:10:58;;;;;;;28.05;4.65;;;10.00;99.90;;;;;;5051247;28;20045;-63
2023/01/05 05:13:24;;;;;;;23.52;4.50;;;10.00;99.90;;;;;;5029621;28;20483;-63
2023/01/05 05:15:49;;;;;;;27.02;4.47;;;10.00;99.90;;;;;;5048893;28;20040;-62
2023/01/05 05:18:15;;;;;;;25.90;5.35;;;10.00;99.90;;;;;;5042801;28;20034;-62
2023/01/05 05:20:44;;;;;;;30.20;6.78;;;10.00;99.90;;;;;;5048657;28;20037;-66
2023/01/05 05:23:10;;;;;;;24.08;4.57;;;10.00;99.90;;;;;;5045229;28;20510;-63
2023/01/05 05:25:35;;;;;;;22.23;4.00;;;10.00;99.90;;;;;;5047960;28;20060;-63
2023/01/05 05:28:01;;;;;;;28.60;4.93;;;10.00;99.90;;;;;;5034422;28;20136;-62
2023/01/05 05:30:26;;;;;;;21.15;4.45;;;10.00;99.90;;;;;;5050595;28;20617;-62
2023/01/05 05:32:52;;;;;;;27.33;4.75;;;9.90;99.90;;;;;;5032156;28;20049;-63
2023/01/05 05:35:18;;;;;;;29.58;4.80;;;10.30;99.90;;;;;;5022482;28;20469;-62
2023/01/05 05:37:43;;;;;;;23.50;4.50;;;10.00;99.90;;;;;;5052308;28;20549;-66
2023/01/05 05:40:10;;;;;;;22.48;5.07;;;10.00;99.90;;;;;;5049139;28;20045;-63
2023/01/05 05:42:35;;;;;;;24.80;4.22;;;10.00;99.90;;;;;;5048019;28;20107;-65
2023/01/05 05:45:01;;;;;;;26.77;4.30;;;10.00;99.90;;;;;;5027304;28;20552;-63
2023/01/05 05:47:27;;;;;;;23.42;4.35;;;10.00;99.90;;;;;;5035647;28;20044;-63
2023/01/05 05:49:52;;;;;;;20.67;3.75;;;10.00;99.90;;;;;;5049539;28;20037;-63
2023/01/05 05:52:18;;;;;;;31.58;4.63;;;10.00;99.90;;;;;;5048623;28;20037;-63
2023/01/05 05:54:43;;;;;;;24.85;4.75;;;10.00;99.90;;;;;;5026128;28;20451;-66
2023/01/05 05:57:09;;;;;;;28.20;5.18;;;10.00;99.90;;;;;;5041524;28;20099;-65
2023/01/05 05:59:35;;;;;;;24.10;4.35;;;10.00;99.90;;;;;;5028514;28;20075;-63
2023/01/05 06:02:00;;;;;;;22.70;4.15;;;10.00;99.90;;;;;;5027393;28;20041;-64
2023/01/05 06:04:26;;;;;;;25.90;4.30;;;10.00;99.90;;;;;;5050471;28;20025;-63
2023/01/05 06:06:51;;;;;;;24.35;4.30;;;10.00;99.90;;;;;;5033699;28;20145;-63
2023/01/05 06:09:17;;;;;;;22.83;4.50;;;10.00;99.90;;;;;;5049636;28;20037;-63
2023/01/05 06:11:43;;;;;;;23.33;5.03;;;10.10;99.90;;;;;;5034154;28;20044;-63
2023/01/05 06:14:09;;;;;;;24.13;4.32;;;10.00;99.90;;;;;;5030670;28;20361;-66
2023/01/05 06:16:35;;;;;;;27.90;5.10;;;10.10;99.90;;;;;;5050588;28;20437;-64
2023/01/05 06:19:00;;;;;;;26.63;5.07;;;10.10;99.90;;;;;;5040371;28;20037;-62
2023/01/05 06:21:26;;;;;;;24.48;3.95;;;10.10;99.90;;;;;;5042798;28;20170;-63
2023/01/05 06:23:54;;;;;;;29.58;4.70;;;10.00;99.90;;;;;;5042691;28;20033;-66
2023/01/05 06:26:20;;;;;;;31.77;5.03;;;10.00;99.90;;;;;;5051060;28;20037;-63
2023/01/05 06:28:48;;;;;;;22.05;4.03;;;10.00;99.90;;;;;;5044319;28;20056;-64
2023/01/05 06:31:13;;;;;;;23.90;4.20;;;10.20;99.90;;;;;;5046624;28;20041;-63
2023/01/05 06:33:39;;;;;;;26.83;4.22;;;10.00;99.90;;;;;;5042700;28;20048;-63
2023/01/05 06:36:05;;;;;;;28.83;4.43;;;10.00;99.90;;;;;;5044268;28;20055;-61
2023/01/05 06:38:30;;;;;;;28.58;5.05;;;10.00;99.90;;;;;;5047350;28;20029;-62
2023/01/05 06:40:57;;;;;;;18.20;3.92;;;10.00;99.90;;;;;;5048096;28;20040;-62
2023/01/05 06:43:23;;;;;;;25.58;4.57;;;10.00;99.90;;;;;;5051824;28;20143;-61
2023/01/05 06:45:49;;;;;;;22.52;4.07;;;10.00;99.90;;;;;;5025403;28;20120;-62
2023/01/05 06:48:14;;;;;;;21.40;4.47;;;10.10;99.90;;;;;;5050497;28;20111;-62
2023/01/05 06:50:40;;;;;;;20.33;4.00;;;10.10;99.90;;;;;;5033541;28;20120;-62
2023/01/05 06:53:06;;;;;;;26.40;5.00;;;10.10;99.90;;;;;;5028151;28;20041;-61
2023/01/05 06:55:31;;;;;;;20.50;3.80;;;10.10;99.90;;;;;;5048147;28;20047;-65
2023/01/05 06:57:57;;;;;;;25.85;4.00;;;10.00;99.90;;;;;;5049445;28;20507;-62
2023/01/05 07:00:23;;;;;;;21.73;4.40;;;10.00;99.90;;;;;;5036467;28;20042;-62
2023/01/05 07:02:48;;;;;;;19.65;3.75;;;10.00;99.90;;;;;;5029358;28;20037;-62
2023/01/05 07:05:14;;;;;;;22.00;3.75;;;10.00;99.90;;;;;;5042438;28;20111;-62
2023/01/05 07:07:40;;;;;;;27.05;4.07;;;10.00;99.90;;;;;;5025590;28;20373;-66
2023/01/05 07:10:06;;;;;;;26.80;4.25;;;10.00;99.90;;;;;;5044566;28;20391;-61
2023/01/05 07:12:31;;;;;;;30.33;4.45;;;10.00;99.90;;;;;;5051340;28;20041;-61
2023/01/05 07:14:57;;;;;;;32.38;4.30;;;10.10;99.90;;;;;;5026948;28;20106;-62
2023/01/05 07:17:23;;;;;;;21.67;4.15;;;10.00;99.90;;;;;;5031899;28;20479;-61
2023/01/05 07:19:48;;;;;;;22.98;4.03;;;10.00;99.90;;;;;;5028880;28;20049;-62
2023/01/05 07:22:14;;;;;;;21.17;4.03;;;10.10;99.90;;;;;;5013212;28;20040;-65
2023/01/05 07:24:40;;;;;;;18.58;4.13;;;10.00;99.90;;;;;;5023044;28;20044;-61
2023/01/05 07:27:06;;;;;;;24.27;4.00;;;10.00;99.90;;;;;;5019872;28;20083;-62
2023/01/05 07:29:32;;;;;;;20.17;4.15;;;10.00;99.90;;;;;;5044099;28;20454;-63
2023/01/05 07:31:58;;;;;;;23.75;4.07;;;10.00;99.90;;;;;;5038812;28;20480;-63
2023/01/05 07:34:23;;;;;;;20.55;3.85;;;10.00;99.90;;;;;;5032794;28;20086;-62
2023/01/05 07:36:49;;;;;;;25.08;4.38;;;10.00;99.90;;;;;;5045373;28;20033;-62
2023/01/05 07:39:15;;;;;;;25.63;3.95;;;10.00;99.90;;;;;;5044841;28;20030;-63
2023/01/05 07:41:41;;;;;;;23.85;4.10;;;10.00;99.90;;;;;;5040259;28;20041;-65
2023/01/05 07:44:07;;;;;;;22.85;3.83;;;9.90;99.90;;;;;;5041420;28;20035;-62
2023/01/05 07:46:32;;;;;;;19.77;3.60;;;9.90;99.90;;;;;;5028333;28;20400;-62
2023/01/05 07:48:59;;;;;;;20.75;3.88;;;9.90;99.90;;;;;;5047845;28;20044;-64
2023/01/05 07:51:25;;;;;;;22.38;4.97;;;9.90;99.90;;;;;;5023927;28;20079;-65
2023/01/05 07:53:50;;;;;;;30.13;4.68;;;9.90;99.90;;;;;;5039821;28;20064;-62
2023/01/05 07:56:16;;;;;;;25.98;4.15;;;9.90;99.90;;;;;;5031162;28;20478;-62
2023/01/05 07:58:42;;;;;;;25.42;4.05;;;9.90;99.90;;;;;;5039208;28;20032;-64
2023/01/05 08:01:09;;;;;;;28.08;4.70;;;9.90;99.90;;;;;;5050278;28;20072;-62
2023/01/05 08:03:35;;;;;;;25.63;4.13;;;9.90;99.90;;;;;;5029394;28;20407;-65
2023/01/05 08:06:06;;;;;;;20.15;4.53;;;9.90;99.90;;;;;;5021953;28;20121;-62
2023/01/05 08:08:32;;;;;;;25.20;4.05;;;9.90;99.90;;;;;;5036504;28;20036;-62
2023/01/05 08:10:58;;;;;;;23.02;4.05;;;9.90;99.90;;;;;;5045601;28;20099;-64
2023/01/05 08:16:08;;;;;;;26.80;4.22;;;9.90;99.90;;;;;;5022512;28;20045;-63
2023/01/05 08:18:33;;;;;;;23.38;4.22;;;9.90;99.90;;;;;;5046177;28;20488;-62
2023/01/05 08:21:04;;;;;;;26.38;3.55;;;9.90;99.90;;;;;;5046027;28;20044;-62
2023/01/05 08:23:31;;;;;;;21.75;3.83;;;9.90;99.90;;;;;;5035574;28;20041;-64
2023/01/05 08:26:06;;;;;;;20.20;4.20;;;9.90;99.90;;;;;;5038503;28;20041;-62
2023/01/05 08:28:34;;;;;;;22.13;4.57;;;9.90;99.90;;;;;;5049789;28;20033;-62
2023/01/05 08:31:25;;;;;;;23.75;4.05;;;9.90;99.90;;;;;;5038551;28;20041;-66
2023/01/05 08:33:54;;;;;;;24.60;4.15;;;9.90;99.90;;;;;;5030819;28;20501;-62
2023/01/05 08:36:20;;;;;;;29.67;5.00;;;10.00;99.90;;;;;;5045256;28;20033;-62
2023/01/05 08:38:47;;;;;;;22.80;3.88;;;10.00;99.90;;;;;;5029552;28;20506;-63
2023/01/05 08:41:18;;;;;;;28.60;4.22;;;10.00;99.90;;;;;;5047705;28;20033;-64
2023/01/05 08:43:47;;;;;;;25.60;3.90;;;10.00;99.90;;;;;;5028851;28;20083;-62
2023/01/05 08:46:13;;;;;;;23.85;4.28;;;10.00;99.90;;;;;;5023101;28;20404;-62
2023/01/05 08:48:38;;;;;;;18.98;4.30;;;10.00;99.90;;;;;;5042213;28;20029;-64
2023/01/05 08:51:06;;;;;;;19.33;4.22;;;10.00;99.90;;;;;;5047862;28;20191;-63
2023/01/05 08:53:34;;;;;;;25.50;4.10;;;10.00;99.90;;;;;;5020955;28;20107;-62
2023/01/05 08:56:01;;;;;;;24.25;4.57;;;10.00;99.90;;;;;;5042200;28;20043;-62
2023/01/05 08:58:26;;;;;;;20.73;4.25;;;10.00;99.90;;;;;;5036885;28;20033;-62
2023/01/05 09:00:52;;;;;;;21.23;4.15;;;10.00;99.90;;;;;;5046631;28;20039;-62
2023/01/05 09:03:18;;;;;;;24.75;3.72;;;10.00;99.90;;;;;;5027530;28;20058;-63
2023/01/05 09:05:44;;;;;;;24.35;4.35;;;10.00;99.90;;;;;;5034949;28;20033;-62
2023/01/05 09:08:10;;;;;;;18.13;3.75;;;10.00;99.90;;;;;;5014009;28;20034;-63
2023/01/05 09:10:35;;;;;;;24.67;4.07;;;10.00;99.90;;;;;;5022898;28;20037;-63
2023/01/05 09:13:01;;;;;;;25.27;4.40;;;10.00;99.90;;;;;;5031485;28;20040;-65
2023/01/05 09:15:27;;;;;;;25.63;4.38;;;10.00;99.90;;;;;;5048059;28;20033;-62
2023/01/05 09:17:52;;;;;;;23.20;3.97;;;10.00;99.90;;;;;;5024008;28;20496;-62
2023/01/05 09:20:18;;;;;;;20.45;3.72;;;10.00;99.90;;;;;;5047563;28;20534;-62
2023/01/05 09:22:44;;;;;;;22.45;4.15;;;10.00;99.90;;;;;;5041833;28;20029;-63
2023/01/05 09:25:09;;;;;;;24.67;4.03;;;10.10;99.90;;;;;;5040920;28;20088;-65
2023/01/05 09:27:35;;;;;;;22.63;4.25;;;10.10;99.90;;;;;;5049059;28;20037;-63
2023/01/05 09:30:03;;;;;;;22.27;3.92;;;10.00;99.90;;;;;;5030218;28;20400;-62
2023/01/05 09:32:28;;;;;;;21.85;4.05;;;10.10;99.90;;;;;;5043980;28;20506;-62
2023/01/05 09:34:54;;;;;;;22.48;4.22;;;10.20;99.90;;;;;;5045206;28;20037;-63
2023/01/05 09:37:20;;;;;;;22.80;4.00;;;10.10;99.90;;;;;;5042155;28;20186;-64
2023/01/05 09:39:46;;;;;;;21.48;5.00;;;10.10;99.90;;;;;;5044722;28;20041;-62
2023/01/05 09:42:16;;;;;;;16.48;3.88;;;10.10;99.90;;;;;;5044241;28;20428;-62
2023/01/05 09:44:46;;;;;;;30.40;4.28;;;10.20;99.90;;;;;;5049445;28;20094;-62
2023/01/05 09:47:40;;;;;;;25.73;4.95;;;10.20;99.90;;;;;;5038146;28;20042;-65
2023/01/05 09:50:16;;;;;;;21.30;4.05;;;10.20;99.90;;;;;;5049964;28;20091;-65
2023/01/05 09:52:42;;;;;;;22.52;4.18;;;10.20;99.90;;;;;;5037578;28;20412;-62
2023/01/05 09:55:19;;;;;;;24.58;3.88;;;10.20;99.90;;;;;;5042675;28;20037;-62
2023/01/05 09:58:13;;;;;;;23.75;4.28;;;10.20;99.90;;;;;;5044543;28;20080;-64
2023/01/05 10:00:44;;;;;;;23.67;3.78;;;10.20;99.90;;;;;;5040477;28;20045;-62
2023/01/05 10:03:20;;;;;;;23.58;4.13;;;10.20;99.90;;;;;;5041563;28;20029;-62
2023/01/05 10:05:46;;;;;;;20.00;3.80;;;10.30;99.90;;;;;;5030067;28;20037;-63
2023/01/05 10:08:18;;;;;;;16.58;3.38;;;10.30;99.90;;;;;;5034899;28;20160;-62
2023/01/05 10:13:53;;;;;;;22.63;4.47;;;10.30;99.90;;;;;;5052905;28;20044;-64
2023/01/05 10:16:19;;;;;;;23.25;3.55;;;10.30;99.90;;;;;;5039505;28;20041;-62
2023/01/05 10:18:45;;;;;;;20.75;4.97;;;10.20;99.90;;;;;;5037188;28;20041;-64
2023/01/05 10:21:16;;;;;;;18.05;3.30;;;10.30;99.90;;;;;;5020770;28;20091;-62
2023/01/05 10:24:18;;;;;;;25.47;3.80;;;10.30;99.90;;;;;;5022288;28;20041;-63
2023/01/05 10:26:56;;;;;;;23.67;4.22;;;10.30;99.90;;;;;;5048184;28;20048;-63
2023/01/05 10:29:31;;;;;;;24.10;3.67;;;10.30;99.90;;;;;;5039524;28;20120;-62
2023/01/05 10:32:15;;;;;;;17.50;3.83;;;10.30;99.90;;;;;;5039685;28;20045;-67
2023/01/05 10:35:27;;;;;;;21.85;3.45;;;10.40;99.90;;;;;;5044018;28;20069;-62
2023/01/05 10:38:04;;;;;;;22.63;3.70;;;10.40;99.90;;;;;;5027304;28;20106;-62
2023/01/05 10:40:59;;;;;;;19.13;3.80;;;10.40;99.90;;;;;;5045428;28;20033;-65
2023/01/05 10:44:05;;;;;;;21.15;3.22;;;10.40;99.90;;;;;;5033474;28;20158;-62
2023/01/05 10:46:31;;;;;;;21.77;4.05;;;10.50;99.90;;;;;;5036944;28;20036;-62
2023/01/05 10:48:58;;;;;;;19.63;3.58;;;10.50;99.90;;;;;;5050175;28;20026;-63
2023/01/05 10:51:25;;;;;;;19.88;4.38;;;10.50;99.90;;;;;;5047718;28;20033;-63
2023/01/05 10:53:52;;;;;;;24.48;4.18;;;10.50;99.90;;;;;;5041058;28;20424;-63
2023/01/05 10:56:27;;;;;;;19.85;3.70;;;10.50;99.90;;;;;;5026367;28;20380;-62
2023/01/05 10:59:07;;;;;;;24.13;4.30;;;10.60;99.90;;;;;;5044437;28;20499;-64
2023/01/05 11:01:36;;;;;;;18.05;3.55;;;10.50;99.90;;;;;;5030971;28;20037;-62
2023/01/05 11:04:11;;;;;;;18.23;3.67;;;10.60;99.90;;;;;;5024837;28;20045;-63
2023/01/05 11:06:37;;;;;;;17.48;3.47;;;10.50;99.90;;;;;;5049323;28;20492;-63
2023/01/05 11:09:15;;;;;;;19.25;3.70;;;10.50;99.90;;;;;;5051199;28;20037;-63
2023/01/05 11:11:41;;;;;;;24.50;3.95;;;10.50;99.90;;;;;;5032856;28;20044;-63
2023/01/05 11:14:15;;;;;;;22.17;4.07;;;10.60;99.90;;;;;;5044139;28;20037;-65
2023/01/05 11:16:48;;;;;;;20.77;3.95;;;10.60;99.90;;;;;;5026962;28;20036;-63
2023/01/05 11:19:17;;;;;;;26.15;4.85;;;10.60;99.90;;;;;;5042971;28;20038;-62
2023/01/05 11:21:44;;;;;;;26.90;4.40;;;10.50;99.90;;;;;;5024074;28;20075;-67
2023/01/05 11:24:22;;;;;;;20.23;3.63;;;10.60;99.90;;;;;;5048268;28;20040;-63
2023/01/05 11:26:53;;;;;;;17.65;4.00;;;10.50;99.90;;;;;;5038932;28;20061;-62
2023/01/05 11:29:19;;;;;;;21.48;4.03;;;10.50;99.90;;;;;;5038874;28;20044;-66
2023/01/05 11:31:50;;;;;;;23.27;3.80;;;10.50;99.90;;;;;;5047569;28;20495;-64
2023/01/05 11:34:50;;;;;;;22.63;3.72;;;10.50;99.90;;;;;;5048986;28;20091;-63
2023/01/05 11:37:25;;;;;;;22.58;4.10;;;10.50;99.90;;;;;;5019017;28;20611;-63
2023/01/05 11:39:59;;;;;;;25.90;4.05;;;10.50;99.90;;;;;;5045463;28;20085;-63
2023/01/05 11:42:25;;;;;;;16.77;4.15;;;10.50;99.90;;;;;;5049927;28;20044;-61
2023/01/05 11:45:01;;;;;;;21.58;3.80;;;10.50;99.90;;;;;;5023931;28;20033;-63
2023/01/05 11:47:44;;;;;;;23.95;3.97;;;10.50;99.90;;;;;;5031270;28;20079;-63
2023/01/05 11:50:13;;;;;;;22.50;3.63;;;10.40;99.90;;;;;;5030577;28;20047;-64
2023/01/05 11:52:44;;;;;;;22.05;3.58;;;10.40;99.90;;;;;;5046257;28;20445;-63
2023/01/05 11:55:19;;;;;;;22.80;3.53;;;10.40;99.90;;;;;;5034844;28;20052;-65
2023/01/05 11:57:52;;;;;;;18.27;4.05;;;10.30;99.90;;;;;;5028298;28;20098;-63
2023/01/05 12:00:25;;;;;;;17.25;3.85;;;10.30;99.90;;;;;;5029262;28;20044;-64
2023/01/05 12:03:06;;;;;;;22.92;4.65;;;10.30;99.90;;;;;;5047666;28;20033;-62
2023/01/05 12:05:54;;;;;;;19.70;5.45;;;10.30;99.90;;;;;;5025080;28;20037;-63
2023/01/05 12:08:35;;;;;;;18.50;4.55;;;10.20;99.90;;;;;;5030703;28;20040;-62
2023/01/05 12:11:14;;;;;;;26.35;4.55;;;10.10;99.90;;;;;;5023801;28;20055;-63
2023/01/05 12:14:04;;;;;;;21.67;5.70;;;10.10;99.90;;;;;;5042630;28;20499;-62
2023/01/05 12:16:51;;;;;;;26.70;5.82;;;10.10;99.90;;;;;;5046751;28;20033;-62
2023/01/05 12:19:48;;;;;;;28.63;4.10;;;10.10;99.90;;;;;;5033019;28;20048;-63
2023/01/05 12:22:32;;;;;;;20.33;4.10;;;10.10;99.90;;;;;;5039747;28;20088;-63
2023/01/05 12:25:31;;;;;;;22.25;4.32;;;10.10;99.90;;;;;;5028598;28;20045;-63
2023/01/05 12:28:25;;;;;;;20.83;3.83;;;10.10;99.90;;;;;;5046250;28;20499;-62
2023/01/05 12:31:11;;;;;;;28.38;4.75;;;10.10;99.90;;;;;;5050333;28;20111;-63
2023/01/05 12:34:07;;;;;;;23.15;4.20;;;10.10;99.90;;;;;;5038869;28;20045;-63
2023/01/05 12:36:45;;;;;;;24.55;3.92;;;10.10;99.90;;;;;;5027596;28;20541;-63
2023/01/05 12:39:45;;;;;;;29.60;4.72;;;10.20;99.90;;;;;;5041110;28;20044;-63
2023/01/05 12:42:31;;;;;;;19.88;3.72;;;10.20;99.90;;;;;;5026376;28;20146;-65
2023/01/05 12:45:15;;;;;;;20.05;4.15;;;10.20;99.90;;;;;;5024532;28;20556;-61
2023/01/05 12:47:47;;;;;;;24.95;4.25;;;10.20;99.90;;;;;;5048010;28;20045;-64
2023/01/05 12:50:34;;;;;;;23.65;5.57;;;10.20;99.90;;;;;;5031494;28;20044;-63
2023/01/05 12:53:25;;;;;;;22.35;4.07;;;10.30;99.90;;;;;;5019549;28;20132;-63
2023/01/05 12:55:54;;;;;;;27.73;4.85;;;10.30;99.90;;;;;;5021415;28;20088;-62
2023/01/05 12:58:38;;;;;;;21.83;4.20;;;10.30;99.90;;;;;;5045474;28;20440;-65
2023/01/05 13:01:09;;;;;;;18.80;4.38;;;10.30;99.90;;;;;;5030651;28;20125;-65
2023/01/05 13:03:40;;;;;;;16.40;3.97;;;10.30;99.90;;;;;;5036160;28;20028;-63
2023/01/05 13:06:15;;;;;;;27.38;4.45;;;10.30;99.90;;;;;;5042905;28;20128;-62
2023/01/05 13:08:57;;;;;;;27.25;4.30;;;10.30;99.90;;;;;;5033285;28;20048;-62
2023/01/05 13:11:37;;;;;;;22.05;4.13;;;10.30;99.90;;;;;;5046706;28;20048;-63
2023/01/05 13:14:09;;;;;;;28.42;4.93;;;10.20;99.90;;;;;;5037616;28;20047;-63
2023/01/05 13:16:45;;;;;;;30.45;4.90;;;10.30;99.90;;;;;;5030140;28;20056;-64
2023/01/05 13:19:11;;;;;;;25.10;4.05;;;10.30;99.90;;;;;;5053106;28;20065;-63
2023/01/05 13:21:41;;;;;;;33.08;5.65;;;10.30;99.90;;;;;;5025806;28;20073;-65
2023/01/05 13:24:26;;;;;;;29.48;5.90;;;10.30;99.90;;;;;;5045544;28;20033;-62
2023/01/05 13:26:53;;;;;;;27.80;5.13;;;10.30;99.90;;;;;;5050889;28;20045;-63
2023/01/05 13:29:31;;;;;;;22.60;4.38;;;10.30;99.90;;;;;;5033059;28;20056;-64